sensor_id;sensor_type;location;lat;lon;timestamp;pressure;altitude;pressure_sealevel;temperature;humidity
73267;BME280;61495;53.400;7.608;2022-12-07T00:03:32;101467.00;;;2.32;92.86
73267;BME280;61495;53.400;7.608;2022-12-07T00:05:59;101462.72;;;2.31;92.59
73267;BME280;61495;53.400;7.608;2022-12-07T00:08:25;101455.06;;;2.28;92.72
73267;BME280;61495;53.400;7.608;2022-12-07T00:10:50;101456.97;;;2.26;92.66
73267;BME280;61495;53.400;7.608;2022-12-07T00:13:16;101452.81;;;2.23;92.38
73267;BME280;61495;53.400;7.608;2022-12-07T00:15:41;101459.22;;;2.21;92.31
73267;BME280;61495;53.400;7.608;2022-12-07T00:18:06;101448.91;;;2.18;92.38
73267;BME280;61495;53.400;7.608;2022-12-07T00:20:32;101447.50;;;2.14;92.58
73267;BME280;61495;53.400;7.608;2022-12-07T00:22:59;101448.63;;;2.11;92.30
73267;BME280;61495;53.400;7.608;2022-12-07T00:25:25;101444.47;;;2.09;92.47
73267;BME280;61495;53.400;7.608;2022-12-07T00:27:52;101440.44;;;2.05;92.58
73267;BME280;61495;53.400;7.608;2022-12-07T00:30:18;101436.38;;;2.01;92.46
73267;BME280;61495;53.400;7.608;2022-12-07T00:32:43;101441.09;;;1.97;92.26
73267;BME280;61495;53.400;7.608;2022-12-07T00:35:09;101435.25;;;1.94;91.91
73267;BME280;61495;53.400;7.608;2022-12-07T00:37:34;101432.03;;;1.90;91.82
73267;BME280;61495;53.400;7.608;2022-12-07T00:40:00;101426.34;;;1.85;91.83
73267;BME280;61495;53.400;7.608;2022-12-07T00:42:25;101432.75;;;1.83;91.77
73267;BME280;61495;53.400;7.608;2022-12-07T00:44:50;101425.34;;;1.77;91.64
73267;BME280;61495;53.400;7.608;2022-12-07T00:47:16;101423.81;;;1.74;91.96
73267;BME280;61495;53.400;7.608;2022-12-07T00:49:41;101423.13;;;1.72;91.98
73267;BME280;61495;53.400;7.608;2022-12-07T00:52:06;101419.94;;;1.68;91.86
73267;BME280;61495;53.400;7.608;2022-12-07T00:54:32;101411.44;;;1.65;92.37
73267;BME280;61495;53.400;7.608;2022-12-07T00:56:57;101417.56;;;1.65;92.48
73267;BME280;61495;53.400;7.608;2022-12-07T00:59:22;101416.84;;;1.63;92.09
73267;BME280;61495;53.400;7.608;2022-12-07T01:01:48;101416.16;;;1.61;92.57
73267;BME280;61495;53.400;7.608;2022-12-07T01:04:13;101421.56;;;1.60;92.58
73267;BME280;61495;53.400;7.608;2022-12-07T01:06:38;101416.56;;;1.57;92.45
73267;BME280;61495;53.400;7.608;2022-12-07T01:09:04;101422.53;;;1.59;92.38
73267;BME280;61495;53.400;7.608;2022-12-07T01:11:31;101423.63;;;1.56;93.05
73267;BME280;61495;53.400;7.608;2022-12-07T01:13:58;101419.31;;;1.55;92.89
73267;BME280;61495;53.400;7.608;2022-12-07T01:16:26;101417.66;;;1.54;92.94
73267;BME280;61495;53.400;7.608;2022-12-07T01:18:54;101428.22;;;1.54;92.85
73267;BME280;61495;53.400;7.608;2022-12-07T01:21:22;101439.59;;;1.55;92.73
73267;BME280;61495;53.400;7.608;2022-12-07T01:23:48;101442.38;;;1.53;93.16
73267;BME280;61495;53.400;7.608;2022-12-07T01:26:17;101451.25;;;1.52;93.22
73267;BME280;61495;53.400;7.608;2022-12-07T01:28:42;101459.19;;;1.52;94.12
73267;BME280;61495;53.400;7.608;2022-12-07T01:31:12;101468.25;;;1.59;94.52
73267;BME280;61495;53.400;7.608;2022-12-07T01:33:41;101456.44;;;1.63;95.16
73267;BME280;61495;53.400;7.608;2022-12-07T01:36:24;101449.94;;;1.67;95.15
73267;BME280;61495;53.400;7.608;2022-12-07T01:38:53;101430.50;;;1.68;95.20
73267;BME280;61495;53.400;7.608;2022-12-07T01:41:22;101428.53;;;1.71;94.85
73267;BME280;61495;53.400;7.608;2022-12-07T01:44:12;101426.59;;;1.73;95.17
73267;BME280;61495;53.400;7.608;2022-12-07T01:46:39;101431.59;;;1.76;94.93
73267;BME280;61495;53.400;7.608;2022-12-07T01:49:06;101427.31;;;1.75;94.04
73267;BME280;61495;53.400;7.608;2022-12-07T01:51:33;101427.16;;;1.76;93.94
73267;BME280;61495;53.400;7.608;2022-12-07T01:54:00;101426.31;;;1.76;93.93
73267;BME280;61495;53.400;7.608;2022-12-07T01:56:26;101419.94;;;1.78;94.06
73267;BME280;61495;53.400;7.608;2022-12-07T01:58:54;101421.47;;;1.81;94.02
73267;BME280;61495;53.400;7.608;2022-12-07T02:01:22;101422.16;;;1.83;94.27
73267;BME280;61495;53.400;7.608;2022-12-07T02:03:48;101418.56;;;1.84;94.15
73267;BME280;61495;53.400;7.608;2022-12-07T02:06:20;101421.22;;;1.84;94.08
73267;BME280;61495;53.400;7.608;2022-12-07T02:08:47;101436.91;;;1.85;94.51
73267;BME280;61495;53.400;7.608;2022-12-07T02:11:13;101450.25;;;1.84;94.11
73267;BME280;61495;53.400;7.608;2022-12-07T02:13:40;101458.34;;;1.92;96.04
73267;BME280;61495;53.400;7.608;2022-12-07T02:19:30;101439.31;;;2.07;97.08
73267;BME280;61495;53.400;7.608;2022-12-07T02:30:53;101399.13;;;2.13;95.49
73267;BME280;61495;53.400;7.608;2022-12-07T02:33:41;101395.66;;;2.13;95.21
73267;BME280;61495;53.400;7.608;2022-12-07T02:36:14;101393.84;;;2.13;94.73
73267;BME280;61495;53.400;7.608;2022-12-07T02:38:53;101402.59;;;2.14;94.89
73267;BME280;61495;53.400;7.608;2022-12-07T02:41:27;101400.78;;;2.14;94.62
73267;BME280;61495;53.400;7.608;2022-12-07T02:43:58;101398.84;;;2.16;94.56
73267;BME280;61495;53.400;7.608;2022-12-07T02:46:29;101417.22;;;2.18;94.66
73267;BME280;61495;53.400;7.608;2022-12-07T02:48:56;101419.84;;;2.18;95.69
73267;BME280;61495;53.400;7.608;2022-12-07T02:51:25;101422.22;;;2.21;96.23
73267;BME280;61495;53.400;7.608;2022-12-07T02:53:50;101420.25;;;2.23;95.78
73267;BME280;61495;53.400;7.608;2022-12-07T02:56:30;101411.09;;;2.27;96.36
73267;BME280;61495;53.400;7.608;2022-12-07T02:59:33;101408.31;;;2.29;96.30
73267;BME280;61495;53.400;7.608;2022-12-07T03:05:12;101399.28;;;2.31;95.61
73267;BME280;61495;53.400;7.608;2022-12-07T03:13:44;101386.06;;;2.31;94.81
73267;BME280;61495;53.400;7.608;2022-12-07T03:16:16;101386.06;;;2.31;94.49
73267;BME280;61495;53.400;7.608;2022-12-07T03:18:55;101389.66;;;2.30;94.60
73267;BME280;61495;53.400;7.608;2022-12-07T03:21:27;101377.56;;;2.28;94.23
73267;BME280;61495;53.400;7.608;2022-12-07T03:23:58;101368.13;;;2.25;94.06
73267;BME280;61495;53.400;7.608;2022-12-07T03:26:31;101375.03;;;2.26;93.88
73267;BME280;61495;53.400;7.608;2022-12-07T03:29:01;101377.97;;;2.23;93.90
73267;BME280;61495;53.400;7.608;2022-12-07T03:31:31;101381.88;;;2.19;94.42
73267;BME280;61495;53.400;7.608;2022-12-07T03:34:18;101383.81;;;2.17;94.41
73267;BME280;61495;53.400;7.608;2022-12-07T03:37:13;101383.00;;;2.16;94.61
73267;BME280;61495;53.400;7.608;2022-12-07T03:40:18;101382.16;;;2.16;94.73
73267;BME280;61495;53.400;7.608;2022-12-07T03:42:45;101388.28;;;2.16;94.11
73267;BME280;61495;53.400;7.608;2022-12-07T03:45:11;101382.16;;;2.16;95.16
73267;BME280;61495;53.400;7.608;2022-12-07T03:47:46;101386.88;;;2.12;94.38
73267;BME280;61495;53.400;7.608;2022-12-07T03:50:32;101387.72;;;2.13;94.56
73267;BME280;61495;53.400;7.608;2022-12-07T03:53:22;101388.56;;;2.13;94.74
73267;BME280;61495;53.400;7.608;2022-12-07T03:55:50;101382.16;;;2.16;95.95
73267;BME280;61495;53.400;7.608;2022-12-07T03:58:20;101380.47;;;2.15;94.47
73267;BME280;61495;53.400;7.608;2022-12-07T04:00:48;101385.78;;;2.15;94.48
73267;BME280;61495;53.400;7.608;2022-12-07T04:03:14;101377.16;;;2.13;94.51
73267;BME280;61495;53.400;7.608;2022-12-07T04:05:39;101386.59;;;2.15;94.38
73267;BME280;61495;53.400;7.608;2022-12-07T04:08:06;101384.81;;;2.16;95.02
73267;BME280;61495;53.400;7.608;2022-12-07T04:10:31;101386.59;;;2.15;94.37
73267;BME280;61495;53.400;7.608;2022-12-07T04:12:56;101388.28;;;2.16;94.69
73267;BME280;61495;53.400;7.608;2022-12-07T04:15:22;101394.38;;;2.17;94.90
73267;BME280;61495;53.400;7.608;2022-12-07T04:17:48;101403.03;;;2.19;95.32
73267;BME280;61495;53.400;7.608;2022-12-07T04:20:13;101410.53;;;2.23;96.97
73267;BME280;61495;53.400;7.608;2022-12-07T04:22:39;101395.22;;;2.27;96.93
73267;BME280;61495;53.400;7.608;2022-12-07T04:25:05;101382.41;;;2.32;97.48
73267;BME280;61495;53.400;7.608;2022-12-07T04:27:30;101377.13;;;2.32;96.80
73267;BME280;61495;53.400;7.608;2022-12-07T04:29:56;101375.19;;;2.34;97.08
73267;BME280;61495;53.400;7.608;2022-12-07T04:32:22;101382.13;;;2.35;96.53
73267;BME280;61495;53.400;7.608;2022-12-07T04:34:47;101380.22;;;2.37;96.32
73267;BME280;61495;53.400;7.608;2022-12-07T04:37:12;101373.94;;;2.38;96.17
73267;BME280;61495;53.400;7.608;2022-12-07T04:39:38;101376.56;;;2.38;95.41
73267;BME280;61495;53.400;7.608;2022-12-07T04:42:04;101367.97;;;2.36;95.85
73267;BME280;61495;53.400;7.608;2022-12-07T04:44:30;101368.78;;;2.37;95.42
73267;BME280;61495;53.400;7.608;2022-12-07T04:46:56;101366.00;;;2.38;94.64
73267;BME280;61495;53.400;7.608;2022-12-07T04:49:22;101351.94;;;2.38;94.77
73267;BME280;61495;53.400;7.608;2022-12-07T04:51:48;101353.78;;;2.37;94.65
73267;BME280;61495;53.400;7.608;2022-12-07T04:54:15;101364.34;;;2.37;95.10
73267;BME280;61495;53.400;7.608;2022-12-07T04:56:40;101358.22;;;2.37;94.80
73267;BME280;61495;53.400;7.608;2022-12-07T04:59:06;101361.84;;;2.36;95.25
73267;BME280;61495;53.400;7.608;2022-12-07T05:01:33;101368.78;;;2.37;95.32
73267;BME280;61495;53.400;7.608;2022-12-07T05:03:58;101362.66;;;2.36;94.73
73267;BME280;61495;53.400;7.608;2022-12-07T05:06:24;101362.66;;;2.36;94.99
73267;BME280;61495;53.400;7.608;2022-12-07T05:08:50;101370.31;;;2.39;94.93
73267;BME280;61495;53.400;7.608;2022-12-07T05:11:15;101374.66;;;2.40;95.28
73267;BME280;61495;53.400;7.608;2022-12-07T05:14:01;101366.28;;;2.45;96.95
73267;BME280;61495;53.400;7.608;2022-12-07T05:16:26;101365.16;;;2.47;97.05
73267;BME280;61495;53.400;7.608;2022-12-07T05:18:52;101371.84;;;2.51;97.17
73267;BME280;61495;53.400;7.608;2022-12-07T05:21:18;101390.06;;;2.54;97.18
73267;BME280;61495;53.400;7.608;2022-12-07T05:23:43;101394.09;;;2.58;97.29
73267;BME280;61495;53.400;7.608;2022-12-07T05:26:08;101388.66;;;2.60;97.13
73267;BME280;61495;53.400;7.608;2022-12-07T05:28:34;101384.22;;;2.60;96.83
73267;BME280;61495;53.400;7.608;2022-12-07T05:30:59;101393.09;;;2.59;96.51
73267;BME280;61495;53.400;7.608;2022-12-07T05:33:24;101358.72;;;2.59;96.10
73267;BME280;61495;53.400;7.608;2022-12-07T05:35:50;101356.94;;;2.60;96.29
73267;BME280;61495;53.400;7.608;2022-12-07T05:38:15;101362.91;;;2.62;95.41
73267;BME280;61495;53.400;7.608;2022-12-07T05:40:41;101355.97;;;2.61;95.71
73267;BME280;61495;53.400;7.608;2022-12-07T05:43:06;101355.97;;;2.61;94.97
73267;BME280;61495;53.400;7.608;2022-12-07T05:45:31;101359.41;;;2.61;95.31
73267;BME280;61495;53.400;7.608;2022-12-07T05:47:57;101361.25;;;2.61;95.15
73267;BME280;61495;53.400;7.608;2022-12-07T05:50:22;101355.97;;;2.61;94.94
73267;BME280;61495;53.400;7.608;2022-12-07T05:52:48;101362.91;;;2.62;94.58
73267;BME280;61495;53.400;7.608;2022-12-07T05:55:13;101366.66;;;2.59;94.58
73267;BME280;61495;53.400;7.608;2022-12-07T05:57:38;101360.69;;;2.57;94.18
73267;BME280;61495;53.400;7.608;2022-12-07T06:00:05;101355.69;;;2.54;94.54
73267;BME280;61495;53.400;7.608;2022-12-07T06:02:31;101359.28;;;2.53;94.27
73267;BME280;61495;53.400;7.608;2022-12-07T06:04:56;101373.50;;;2.52;94.21
73267;BME280;61495;53.400;7.608;2022-12-07T06:07:21;101371.84;;;2.51;94.29
73267;BME280;61495;53.400;7.608;2022-12-07T06:09:47;101373.78;;;2.49;94.27
73267;BME280;61495;53.400;7.608;2022-12-07T06:12:13;101368.63;;;2.48;94.43
73267;BME280;61495;53.400;7.608;2022-12-07T06:14:57;101364.31;;;2.47;94.68
73267;BME280;61495;53.400;7.608;2022-12-07T06:17:23;101375.03;;;2.45;95.12
73267;BME280;61495;53.400;7.608;2022-12-07T06:19:49;101359.47;;;2.42;94.52
73267;BME280;61495;53.400;7.608;2022-12-07T06:22:14;101363.78;;;2.43;94.90
73267;BME280;61495;53.400;7.608;2022-12-07T06:24:41;101355.13;;;2.41;95.00
73267;BME280;61495;53.400;7.608;2022-12-07T06:27:07;101345.84;;;2.37;94.84
73267;BME280;61495;53.400;7.608;2022-12-07T06:29:33;101360.72;;;2.38;95.10
73267;BME280;61495;53.400;7.608;2022-12-07T06:31:58;101344.16;;;2.36;95.09
73267;BME280;61495;53.400;7.608;2022-12-07T06:34:25;101352.09;;;2.36;94.40
73267;BME280;61495;53.400;7.608;2022-12-07T06:36:51;101350.41;;;2.35;94.12
73267;BME280;61495;53.400;7.608;2022-12-07T06:39:20;101352.38;;;2.33;93.99
73267;BME280;61495;53.400;7.608;2022-12-07T06:41:46;101350.69;;;2.32;94.04
73267;BME280;61495;53.400;7.608;2022-12-07T06:44:12;101354.63;;;2.28;93.76
73267;BME280;61495;53.400;7.608;2022-12-07T06:46:38;101360.19;;;2.25;93.63
73267;BME280;61495;53.400;7.608;2022-12-07T06:49:04;101358.78;;;2.21;93.53
73267;BME280;61495;53.400;7.608;2022-12-07T06:51:31;101367.00;;;2.18;93.37
73267;BME280;61495;53.400;7.608;2022-12-07T06:53:56;101366.59;;;2.13;93.32
73267;BME280;61495;53.400;7.608;2022-12-07T06:56:22;101368.50;;;2.11;93.80
73267;BME280;61495;53.400;7.608;2022-12-07T06:58:48;101372.44;;;2.07;93.61
73267;BME280;61495;53.400;7.608;2022-12-07T07:01:14;101369.91;;;2.05;93.26
73267;BME280;61495;53.400;7.608;2022-12-07T07:03:41;101372.97;;;2.01;93.05
73267;BME280;61495;53.400;7.608;2022-12-07T07:06:06;101365.44;;;1.96;93.45
73267;BME280;61495;53.400;7.608;2022-12-07T07:08:36;101362.41;;;1.91;93.44
73267;BME280;61495;53.400;7.608;2022-12-07T07:11:02;101370.31;;;1.91;93.28
73267;BME280;61495;53.400;7.608;2022-12-07T07:13:28;101363.50;;;1.89;93.51
73267;BME280;61495;53.400;7.608;2022-12-07T07:15:54;101360.19;;;1.87;93.46
73267;BME280;61495;53.400;7.608;2022-12-07T07:18:20;101367.41;;;1.85;93.75
73267;BME280;61495;53.400;7.608;2022-12-07T07:20:46;101364.06;;;1.83;93.50
73267;BME280;61495;53.400;7.608;2022-12-07T07:23:11;101360.72;;;1.81;93.24
73267;BME280;61495;53.400;7.608;2022-12-07T07:25:37;101355.16;;;1.74;93.26
73267;BME280;61495;53.400;7.608;2022-12-07T07:28:02;101368.22;;;1.76;93.30
73267;BME280;61495;53.400;7.608;2022-12-07T07:30:28;101363.22;;;1.73;93.09
73267;BME280;61495;53.400;7.608;2022-12-07T07:32:58;101361.84;;;1.68;93.05
73267;BME280;61495;53.400;7.608;2022-12-07T07:35:24;101368.75;;;1.69;93.14
73267;BME280;61495;53.400;7.608;2022-12-07T07:37:50;101363.22;;;1.63;93.53
73267;BME280;61495;53.400;7.608;2022-12-07T07:40:16;101346.53;;;1.62;94.17
73267;BME280;61495;53.400;7.608;2022-12-07T07:42:41;101354.31;;;1.64;94.13
73267;BME280;61495;53.400;7.608;2022-12-07T07:45:07;101350.81;;;1.63;93.74
73267;BME280;61495;53.400;7.608;2022-12-07T07:47:33;101352.50;;;1.64;94.18
73267;BME280;61495;53.400;7.608;2022-12-07T07:49:59;101347.91;;;1.66;93.90
73267;BME280;61495;53.400;7.608;2022-12-07T07:52:24;101360.41;;;1.64;93.77
73267;BME280;61495;53.400;7.608;2022-12-07T07:54:50;101362.09;;;1.65;93.85
73267;BME280;61495;53.400;7.608;2022-12-07T07:57:16;101369.03;;;1.66;94.11
73267;BME280;61495;53.400;7.608;2022-12-07T07:59:42;101363.75;;;1.66;93.96
73267;BME280;61495;53.400;7.608;2022-12-07T08:02:13;101365.59;;;1.66;93.99
73267;BME280;61495;53.400;7.608;2022-12-07T08:04:39;101363.75;;;1.66;94.52
73267;BME280;61495;53.400;7.608;2022-12-07T08:07:04;101375.03;;;1.68;94.27
73267;BME280;61495;53.400;7.608;2022-12-07T08:09:30;101374.19;;;1.68;93.99
73267;BME280;61495;53.400;7.608;2022-12-07T08:11:55;101378.50;;;1.69;94.36
73267;BME280;61495;53.400;7.608;2022-12-07T08:14:20;101381.00;;;1.71;94.00
73267;BME280;61495;53.400;7.608;2022-12-07T08:16:46;101391.56;;;1.71;94.27
73267;BME280;61495;53.400;7.608;2022-12-07T08:19:11;101393.25;;;1.72;94.24
73267;BME280;61495;53.400;7.608;2022-12-07T08:21:37;101404.66;;;1.72;94.51
73267;BME280;61495;53.400;7.608;2022-12-07T08:24:02;101419.38;;;1.75;94.72
73267;BME280;61495;53.400;7.608;2022-12-07T08:26:28;101430.53;;;1.78;95.23
73267;BME280;61495;53.400;7.608;2022-12-07T08:28:53;101434.69;;;1.81;95.32
73267;BME280;61495;53.400;7.608;2022-12-07T08:31:19;101429.94;;;1.84;95.89
73267;BME280;61495;53.400;7.608;2022-12-07T08:33:46;101419.00;;;1.89;95.86
73267;BME280;61495;53.400;7.608;2022-12-07T08:36:12;101398.00;;;1.97;95.71
73267;BME280;61495;53.400;7.608;2022-12-07T08:38:39;101394.22;;;1.99;95.13
73267;BME280;61495;53.400;7.608;2022-12-07T08:41:06;101389.41;;;2.04;95.40
73267;BME280;61495;53.400;7.608;2022-12-07T08:43:32;101390.25;;;2.05;95.40
73267;BME280;61495;53.400;7.608;2022-12-07T08:46:07;101389.66;;;2.11;95.90
73267;BME280;61495;53.400;7.608;2022-12-07T08:48:37;101381.59;;;2.12;94.68
73267;BME280;61495;53.400;7.608;2022-12-07T08:51:04;101384.94;;;2.14;94.95
73267;BME280;61495;53.400;7.608;2022-12-07T08:53:29;101373.53;;;2.14;94.97
73267;BME280;61495;53.400;7.608;2022-12-07T08:55:56;101374.91;;;2.18;94.81
73267;BME280;61495;53.400;7.608;2022-12-07T08:58:21;101370.47;;;2.18;94.31
73267;BME280;61495;53.400;7.608;2022-12-07T09:00:47;101368.50;;;2.20;94.33
73267;BME280;61495;53.400;7.608;2022-12-07T09:03:12;101371.03;;;2.22;94.19
73267;BME280;61495;53.400;7.608;2022-12-07T09:05:38;101362.13;;;2.23;94.34
73267;BME280;61495;53.400;7.608;2022-12-07T09:08:03;101369.06;;;2.24;94.13
73267;BME280;61495;53.400;7.608;2022-12-07T09:10:29;101369.06;;;2.24;94.15
73267;BME280;61495;53.400;7.608;2022-12-07T09:12:55;101369.06;;;2.24;94.28
73267;BME280;61495;53.400;7.608;2022-12-07T09:15:20;101369.06;;;2.24;94.18
73267;BME280;61495;53.400;7.608;2022-12-07T09:17:45;101375.19;;;2.24;94.74
73267;BME280;61495;53.400;7.608;2022-12-07T09:20:11;101384.38;;;2.30;94.75
73267;BME280;61495;53.400;7.608;2022-12-07T09:22:37;101385.63;;;2.36;95.19
73267;BME280;61495;53.400;7.608;2022-12-07T09:25:03;101388.81;;;2.39;95.95
73267;BME280;61495;53.400;7.608;2022-12-07T09:27:29;101399.13;;;2.42;95.61
73267;BME280;61495;53.400;7.608;2022-12-07T09:29:54;101389.38;;;2.52;96.07
73267;BME280;61495;53.400;7.608;2022-12-07T09:32:20;101385.47;;;2.56;96.48
73267;BME280;61495;53.400;7.608;2022-12-07T09:34:45;101390.19;;;2.62;96.43
73267;BME280;61495;53.400;7.608;2022-12-07T09:37:11;101395.19;;;2.65;96.25
73267;BME280;61495;53.400;7.608;2022-12-07T09:39:40;101398.09;;;2.72;96.36
73267;BME280;61495;53.400;7.608;2022-12-07T09:42:07;101394.06;;;2.77;96.55
73267;BME280;61495;53.400;7.608;2022-12-07T09:44:34;101395.97;;;2.85;96.17
73267;BME280;61495;53.400;7.608;2022-12-07T09:47:00;101398.31;;;2.98;96.62
73267;BME280;61495;53.400;7.608;2022-12-07T09:49:29;101400.06;;;3.16;96.35
73267;BME280;61495;53.400;7.608;2022-12-07T09:52:19;101404.09;;;3.20;96.44
73267;BME280;61495;53.400;7.608;2022-12-07T09:54:48;101398.34;;;3.25;96.60
73267;BME280;61495;53.400;7.608;2022-12-07T09:57:14;101399.44;;;3.32;96.26
73267;BME280;61495;53.400;7.608;2022-12-07T09:59:40;101384.75;;;3.47;96.76
73267;BME280;61495;53.400;7.608;2022-12-07T10:02:40;101389.25;;;3.64;96.34
73267;BME280;61495;53.400;7.608;2022-12-07T10:05:24;101390.53;;;3.78;96.58
73267;BME280;61495;53.400;7.608;2022-12-07T10:07:51;101383.13;;;3.81;95.70
73267;BME280;61495;53.400;7.608;2022-12-07T10:10:28;101385.78;;;3.81;95.67
73267;BME280;61495;53.400;7.608;2022-12-07T10:13:03;101380.19;;;3.84;95.82
73267;BME280;61495;53.400;7.608;2022-12-07T10:15:52;101383.38;;;3.88;95.42
73267;BME280;61495;53.400;7.608;2022-12-07T10:18:28;101382.91;;;3.92;95.46
73267;BME280;61495;53.400;7.608;2022-12-07T10:21:05;101376.63;;;3.93;95.14
73267;BME280;61495;53.400;7.608;2022-12-07T10:23:33;101381.63;;;3.97;95.42
73267;BME280;61495;53.400;7.608;2022-12-07T10:25:58;101375.19;;;3.99;95.16
73267;BME280;61495;53.400;7.608;2022-12-07T10:28:34;101367.09;;;4.01;94.78
73267;BME280;61495;53.400;7.608;2022-12-07T10:31:02;101371.94;;;4.05;94.87
73267;BME280;61495;53.400;7.608;2022-12-07T10:33:59;101367.16;;;4.09;94.57
73267;BME280;61495;53.400;7.608;2022-12-07T10:36:26;101357.94;;;4.13;94.52
73267;BME280;61495;53.400;7.608;2022-12-07T10:39:13;101353.97;;;4.17;94.73
73267;BME280;61495;53.400;7.608;2022-12-07T10:42:19;101355.34;;;4.21;94.89
73267;BME280;61495;53.400;7.608;2022-12-07T10:44:45;101359.50;;;4.23;94.30
73267;BME280;61495;53.400;7.608;2022-12-07T10:47:31;101354.66;;;4.36;94.87
73267;BME280;61495;53.400;7.608;2022-12-07T10:50:14;101351.22;;;4.44;94.27
73267;BME280;61495;53.400;7.608;2022-12-07T11:01:15;101338.44;;;4.65;94.43
73267;BME280;61495;53.400;7.608;2022-12-07T11:06:35;101334.84;;;4.74;93.53
73267;BME280;61495;53.400;7.608;2022-12-07T11:15:24;101328.94;;;4.88;92.53
73267;BME280;61495;53.400;7.608;2022-12-07T11:18:27;101325.31;;;4.89;91.18
73267;BME280;61495;53.400;7.608;2022-12-07T11:21:27;101312.72;;;4.91;91.26
73267;BME280;61495;53.400;7.608;2022-12-07T11:34:39;101308.81;;;5.12;90.52
73267;BME280;61495;53.400;7.608;2022-12-07T11:37:32;101295.91;;;5.17;90.05
73267;BME280;61495;53.400;7.608;2022-12-07T11:40:05;101291.28;;;5.27;91.37
73267;BME280;61495;53.400;7.608;2022-12-07T11:42:41;101285.97;;;5.35;91.06
73267;BME280;61495;53.400;7.608;2022-12-07T11:47:40;101282.34;;;5.44;90.99
73267;BME280;61495;53.400;7.608;2022-12-07T11:53:01;101286.69;;;5.45;89.49
73267;BME280;61495;53.400;7.608;2022-12-07T11:58:04;101285.38;;;5.49;89.95
73267;BME280;61495;53.400;7.608;2022-12-07T12:00:30;101294.16;;;5.49;89.19
73267;BME280;61495;53.400;7.608;2022-12-07T12:03:09;101278.38;;;5.48;88.66
73267;BME280;61495;53.400;7.608;2022-12-07T12:05:36;101278.69;;;5.45;88.80
73267;BME280;61495;53.400;7.608;2022-12-07T12:08:18;101282.34;;;5.44;88.82
73267;BME280;61495;53.400;7.608;2022-12-07T12:19:58;101271.06;;;5.50;88.82
73267;BME280;61495;53.400;7.608;2022-12-07T12:22:34;101273.06;;;5.48;88.36
73267;BME280;61495;53.400;7.608;2022-12-07T12:25:04;101273.72;;;5.50;88.66
73267;BME280;61495;53.400;7.608;2022-12-07T12:27:33;101265.44;;;5.53;88.72
73267;BME280;61495;53.400;7.608;2022-12-07T12:30:01;101260.44;;;5.50;88.07
73267;BME280;61495;53.400;7.608;2022-12-07T12:32:38;101259.44;;;5.51;88.47
73267;BME280;61495;53.400;7.608;2022-12-07T12:35:35;101261.28;;;5.50;88.00
73267;BME280;61495;53.400;7.608;2022-12-07T12:40:44;101257.97;;;5.48;87.75
73267;BME280;61495;53.400;7.608;2022-12-07T12:43:41;101253.81;;;5.46;87.53
73267;BME280;61495;53.400;7.608;2022-12-07T12:49:37;101244.50;;;5.50;88.27
73267;BME280;61495;53.400;7.608;2022-12-07T12:57:35;101249.47;;;5.53;87.77
73267;BME280;61495;53.400;7.608;2022-12-07T13:00:21;101242.03;;;5.48;87.23
73267;BME280;61495;53.400;7.608;2022-12-07T13:02:51;101242.19;;;5.55;87.84
73267;BME280;61495;53.400;7.608;2022-12-07T13:05:20;101234.88;;;5.57;87.54
73267;BME280;61495;53.400;7.608;2022-12-07T13:10:37;101232.06;;;5.67;87.68
73267;BME280;61495;53.400;7.608;2022-12-07T13:15:45;101233.91;;;5.66;87.26
73267;BME280;61495;53.400;7.608;2022-12-07T13:23:55;101233.56;;;5.69;86.53
73267;BME280;61495;53.400;7.608;2022-12-07T13:31:38;101235.22;;;5.70;86.24
73267;BME280;61495;53.400;7.608;2022-12-07T13:36:51;101227.25;;;5.78;87.72
73267;BME280;61495;53.400;7.608;2022-12-07T13:39:21;101237.88;;;5.78;87.30
73267;BME280;61495;53.400;7.608;2022-12-07T13:41:55;101229.22;;;5.76;87.06
73267;BME280;61495;53.400;7.608;2022-12-07T13:44:22;101232.72;;;5.77;87.25
73267;BME280;61495;53.400;7.608;2022-12-07T13:46:53;101232.91;;;5.75;87.05
73267;BME280;61495;53.400;7.608;2022-12-07T13:49:24;101229.56;;;5.73;86.70
73267;BME280;61495;53.400;7.608;2022-12-07T13:51:50;101230.41;;;5.74;86.98
73267;BME280;61495;53.400;7.608;2022-12-07T13:54:17;101222.94;;;5.69;86.55
73267;BME280;61495;53.400;7.608;2022-12-07T13:56:43;101230.59;;;5.64;86.10
73267;BME280;61495;53.400;7.608;2022-12-07T13:59:17;101227.75;;;5.66;86.58
73267;BME280;61495;53.400;7.608;2022-12-07T14:01:46;101226.06;;;5.65;86.75
73267;BME280;61495;53.400;7.608;2022-12-07T14:04:24;101224.75;;;5.60;86.43
73267;BME280;61495;53.400;7.608;2022-12-07T14:06:54;101224.25;;;5.57;85.22
73267;BME280;61495;53.400;7.608;2022-12-07T14:09:24;101215.63;;;5.55;86.87
73267;BME280;61495;53.400;7.608;2022-12-07T14:11:52;101213.94;;;5.54;85.48
73267;BME280;61495;53.400;7.608;2022-12-07T14:14:21;101215.94;;;5.52;86.34
73267;BME280;61495;53.400;7.608;2022-12-07T14:17:14;101215.44;;;5.48;86.29
73267;BME280;61495;53.400;7.608;2022-12-07T14:22:17;101216.09;;;5.42;86.64
73267;BME280;61495;53.400;7.608;2022-12-07T14:24:43;101211.94;;;5.40;87.13
73267;BME280;61495;53.400;7.608;2022-12-07T14:27:20;101204.97;;;5.31;85.26
73267;BME280;61495;53.400;7.608;2022-12-07T14:29:46;101211.75;;;5.25;85.47
73267;BME280;61495;53.400;7.608;2022-12-07T14:32:22;101204.44;;;5.19;85.87
73267;BME280;61495;53.400;7.608;2022-12-07T14:34:57;101206.59;;;5.16;87.22
73267;BME280;61495;53.400;7.608;2022-12-07T14:37:23;101216.69;;;5.12;86.61
73267;BME280;61495;53.400;7.608;2022-12-07T14:39:49;101211.91;;;5.08;86.41
73267;BME280;61495;53.400;7.608;2022-12-07T14:42:14;101206.91;;;5.04;86.55
73267;BME280;61495;53.400;7.608;2022-12-07T14:44:40;101207.22;;;5.01;86.82
73267;BME280;61495;53.400;7.608;2022-12-07T14:47:09;101203.88;;;4.99;86.47
73267;BME280;61495;53.400;7.608;2022-12-07T14:49:35;101208.69;;;4.96;86.74
73267;BME280;61495;53.400;7.608;2022-12-07T14:52:00;101210.84;;;4.92;87.21
73267;BME280;61495;53.400;7.608;2022-12-07T14:54:31;101206.84;;;4.88;86.88